createdAt,value
2023-05-07T00:01:12.934Z,19.70
2023-05-07T00:03:41.005Z,21.92
2023-05-07T00:06:09.063Z,20.75
2023-05-07T00:08:38.440Z,19.92
2023-05-07T00:11:06.457Z,17.65
2023-05-07T00:13:36.653Z,20.55
2023-05-07T00:16:04.809Z,21.48
2023-05-07T00:18:32.827Z,20.85
2023-05-07T00:21:00.613Z,20.10
2023-05-07T00:23:28.408Z,20.65
2023-05-07T00:25:58.305Z,19.52
2023-05-07T00:28:26.215Z,22.65
2023-05-07T00:30:54.934Z,21.30
2023-05-07T00:33:23.290Z,19.88
2023-05-07T00:35:51.202Z,20.30
2023-05-07T00:38:19.034Z,18.45
2023-05-07T00:40:47.079Z,21.83
2023-05-07T00:43:16.352Z,20.67
2023-05-07T00:45:44.285Z,20.33
2023-05-07T00:48:12.307Z,20.05
2023-05-07T00:50:40.126Z,20.15
2023-05-07T00:53:08.861Z,24.17
2023-05-07T00:55:38.574Z,21.35
2023-05-07T00:58:06.970Z,21.58
2023-05-07T01:00:36.918Z,24.42
2023-05-07T01:03:05.301Z,22.92
2023-05-07T01:05:33.750Z,23.02
2023-05-07T01:08:03.236Z,23.02
2023-05-07T01:10:32.304Z,25.13
2023-05-07T01:13:01.491Z,26.27
2023-05-07T01:15:29.772Z,25.55
2023-05-07T01:17:59.509Z,25.42
2023-05-07T01:20:27.401Z,26.17
2023-05-07T01:22:57.354Z,20.40
2023-05-07T01:25:26.845Z,24.27
2023-05-07T01:27:54.977Z,25.42
2023-05-07T01:30:24.822Z,21.17
2023-05-07T01:32:59.176Z,21.38
2023-05-07T01:35:31.188Z,24.48
2023-05-07T01:38:00.985Z,26.63
2023-05-07T01:40:29.806Z,20.73
2023-05-07T01:42:58.114Z,24.35
2023-05-07T01:45:27.114Z,27.70
2023-05-07T01:47:55.762Z,24.13
2023-05-07T01:50:23.914Z,23.17
2023-05-07T01:52:53.168Z,23.65
2023-05-07T01:55:22.733Z,26.10
2023-05-07T01:57:50.786Z,27.67
2023-05-07T02:00:20.046Z,23.25
2023-05-07T02:02:48.307Z,23.90
2023-05-07T02:05:18.376Z,26.23
2023-05-07T02:07:46.320Z,24.05
2023-05-07T02:10:14.328Z,27.88
2023-05-07T02:12:44.247Z,27.60
2023-05-07T02:15:12.981Z,28.88
2023-05-07T02:18:00.459Z,25.48
2023-05-07T02:20:28.660Z,27.08
2023-05-07T02:22:56.440Z,26.67
2023-05-07T02:25:24.334Z,28.27
2023-05-07T02:27:53.754Z,25.63
2023-05-07T02:30:22.410Z,30.20
2023-05-07T02:32:50.882Z,27.60
2023-05-07T02:35:18.993Z,26.10
2023-05-07T02:37:46.832Z,31.92
2023-05-07T02:40:15.067Z,28.58
2023-05-07T02:42:42.847Z,31.88
2023-05-07T02:45:13.051Z,28.10
2023-05-07T02:47:40.892Z,29.45
2023-05-07T02:50:10.074Z,29.67
2023-05-07T02:52:38.244Z,29.88
2023-05-07T02:55:07.095Z,28.13
2023-05-07T02:57:34.972Z,23.83
2023-05-07T03:00:14.509Z,28.10
2023-05-07T03:02:42.701Z,31.73
2023-05-07T03:05:10.722Z,32.30
2023-05-07T03:07:38.839Z,27.63
2023-05-07T03:10:07.556Z,28.02
2023-05-07T03:12:35.688Z,32.17
2023-05-07T03:15:03.720Z,29.90
2023-05-07T03:17:32.993Z,25.90
2023-05-07T03:20:00.822Z,34.10
2023-05-07T03:22:28.749Z,29.00
2023-05-07T03:24:56.621Z,32.70
2023-05-07T03:27:24.471Z,29.70
2023-05-07T03:29:52.384Z,37.58
2023-05-07T03:32:20.167Z,38.20
2023-05-07T03:34:49.612Z,39.50
2023-05-07T03:37:17.471Z,35.67
2023-05-07T03:39:45.452Z,36.63
2023-05-07T03:42:13.481Z,40.83
2023-05-07T03:44:41.366Z,35.40
2023-05-07T03:47:09.222Z,39.88
2023-05-07T03:49:39.435Z,33.47
2023-05-07T03:52:08.993Z,43.03
2023-05-07T03:54:37.072Z,41.97
2023-05-07T03:57:05.208Z,43.25
2023-05-07T03:59:33.222Z,39.15
2023-05-07T04:02:03.601Z,42.38
2023-05-07T04:04:34.079Z,40.97
2023-05-07T04:07:04.091Z,37.60
2023-05-07T04:09:33.512Z,44.03
2023-05-07T04:12:02.478Z,36.97
2023-05-07T04:14:31.504Z,40.17
2023-05-07T04:16:59.478Z,38.80
2023-05-07T04:19:27.476Z,31.63
2023-05-07T04:21:55.800Z,41.00
2023-05-07T04:24:23.869Z,39.92
2023-05-07T04:26:53.774Z,33.33
2023-05-07T04:29:22.118Z,40.97
2023-05-07T04:31:50.148Z,39.40
2023-05-07T04:34:18.114Z,35.78
2023-05-07T04:36:47.238Z,34.03
2023-05-07T04:39:15.175Z,33.72
2023-05-07T04:41:43.012Z,36.92
2023-05-07T04:44:12.332Z,35.45
2023-05-07T04:46:40.205Z,35.15
2023-05-07T04:49:07.945Z,39.47
2023-05-07T04:51:35.828Z,40.05
2023-05-07T04:54:03.652Z,35.15
2023-05-07T04:56:32.110Z,35.08
2023-05-07T04:59:00.146Z,32.20
2023-05-07T05:01:29.727Z,43.53
2023-05-07T05:03:57.647Z,39.70
2023-05-07T05:06:25.660Z,40.20
2023-05-07T05:08:53.405Z,42.65
2023-05-07T05:11:21.991Z,40.80
2023-05-07T05:13:50.367Z,32.40
2023-05-07T05:16:18.515Z,40.20
2023-05-07T05:18:47.912Z,34.00
2023-05-07T05:21:15.847Z,37.40
2023-05-07T05:23:43.644Z,40.33
2023-05-07T05:26:11.666Z,29.38
2023-05-07T05:28:39.456Z,29.13
2023-05-07T05:31:07.372Z,32.90
2023-05-07T05:33:35.310Z,30.85
2023-05-07T05:36:06.862Z,32.60
2023-05-07T05:38:34.898Z,35.72
2023-05-07T05:41:03.028Z,35.45
2023-05-07T05:43:31.438Z,34.72
2023-05-07T05:45:59.961Z,32.08
2023-05-07T05:48:28.061Z,31.20
2023-05-07T05:50:55.964Z,34.03
2023-05-07T05:53:25.299Z,35.05
2023-05-07T05:55:54.219Z,31.75
2023-05-07T05:58:22.292Z,30.45
2023-05-07T06:00:53.217Z,35.58
2023-05-07T06:03:21.717Z,29.48
2023-05-07T06:05:54.285Z,29.52
2023-05-07T06:08:22.850Z,28.50
2023-05-07T06:14:31.105Z,27.70
2023-05-07T06:17:00.475Z,25.92
2023-05-07T06:19:33.617Z,24.77
2023-05-07T06:22:12.183Z,22.63
2023-05-07T06:24:50.707Z,21.92
2023-05-07T06:30:28.020Z,19.17
2023-05-07T06:33:09.913Z,20.20
2023-05-07T06:35:38.814Z,18.92
2023-05-07T06:38:11.747Z,16.70
2023-05-07T06:40:41.028Z,16.50
2023-05-07T06:43:16.985Z,15.68
2023-05-07T06:45:49.034Z,14.10
2023-05-07T06:48:25.326Z,13.90
2023-05-07T06:51:00.223Z,14.18
2023-05-07T06:53:33.327Z,13.00
2023-05-07T06:56:09.927Z,14.43
2023-05-07T06:58:51.606Z,14.32
2023-05-07T07:01:21.419Z,13.88
2023-05-07T07:03:53.885Z,12.48
2023-05-07T07:06:37.733Z,13.15
2023-05-07T07:09:28.225Z,13.07
2023-05-07T07:12:10.683Z,11.75
2023-05-07T07:14:41.464Z,11.65
2023-05-07T07:17:14.650Z,11.70
2023-05-07T07:19:45.703Z,12.55
2023-05-07T07:22:16.431Z,11.00
2023-05-07T07:24:47.971Z,11.07
2023-05-07T07:27:29.432Z,12.47
2023-05-07T07:32:45.091Z,10.50
2023-05-07T07:35:21.346Z,10.38
2023-05-07T07:38:16.197Z,9.13
2023-05-07T07:40:59.709Z,9.90
2023-05-07T07:43:38.017Z,9.02
2023-05-07T07:46:13.249Z,9.43
2023-05-07T07:49:10.326Z,10.88
2023-05-07T08:08:14.701Z,7.32
2023-05-07T08:10:47.995Z,8.27
2023-05-07T08:13:33.153Z,6.00
2023-05-07T08:16:20.093Z,7.15
2023-05-07T08:19:00.568Z,7.78
2023-05-07T08:21:40.470Z,6.15
2023-05-07T08:27:15.111Z,4.80
2023-05-07T08:29:52.265Z,7.70
2023-05-07T08:32:24.094Z,5.38
2023-05-07T08:35:11.219Z,7.60
2023-05-07T08:37:44.053Z,4.78
2023-05-07T08:40:15.138Z,6.38
2023-05-07T08:45:35.965Z,6.60
2023-05-07T08:48:13.898Z,5.18
2023-05-07T08:50:43.350Z,5.85
2023-05-07T08:53:12.652Z,5.60
2023-05-07T08:55:45.864Z,5.32
2023-05-07T08:58:15.045Z,4.88
2023-05-07T09:01:00.551Z,6.68
2023-05-07T09:03:36.893Z,5.85
2023-05-07T09:06:06.779Z,4.93
2023-05-07T09:11:55.786Z,6.07
2023-05-07T09:14:29.026Z,4.32
2023-05-07T09:17:11.217Z,4.75
2023-05-07T09:20:12.126Z,7.80
2023-05-07T09:23:19.589Z,5.45
2023-05-07T09:26:21.449Z,5.60
2023-05-07T09:29:26.405Z,5.23
2023-05-07T09:32:35.982Z,5.18
2023-05-07T09:35:36.089Z,4.78
2023-05-07T09:38:52.273Z,5.47
2023-05-07T09:44:27.207Z,6.30
2023-05-07T09:54:39.801Z,4.63
2023-05-07T09:57:14.782Z,4.00
2023-05-07T09:59:48.945Z,5.28
2023-05-07T10:02:27.368Z,5.10
2023-05-07T10:23:57.797Z,4.50
2023-05-07T10:31:10.595Z,6.28
2023-05-07T10:37:26.296Z,3.53
2023-05-07T11:21:59.636Z,4.03
2023-05-07T11:32:24.833Z,4.68
2023-05-07T11:39:15.757Z,2.95
2023-05-07T11:46:29.163Z,5.28
2023-05-07T12:11:19.389Z,4.15
2023-05-07T12:13:46.151Z,2.85
2023-05-07T12:16:14.931Z,3.67
2023-05-07T12:18:46.498Z,2.80
2023-05-07T12:21:15.270Z,3.60
2023-05-07T12:24:43.862Z,3.10
2023-05-07T12:27:49.890Z,3.15
2023-05-07T12:30:46.982Z,4.38
2023-05-07T12:33:33.488Z,3.42
2023-05-07T12:36:38.896Z,4.82
2023-05-07T13:05:19.645Z,4.22
2023-05-07T13:42:22.557Z,4.63
2023-05-07T13:44:54.869Z,5.95
2023-05-07T13:47:32.837Z,5.78
2023-05-07T13:50:14.060Z,6.20
2023-05-07T13:52:52.071Z,6.47
2023-05-07T14:07:52.231Z,7.43
2023-05-07T14:24:45.208Z,6.18
2023-05-07T14:27:22.152Z,7.22
2023-05-07T14:30:09.294Z,5.95
2023-05-07T14:39:52.179Z,7.93
2023-05-07T14:45:44.141Z,7.32
2023-05-07T14:48:33.441Z,9.25
2023-05-07T14:52:06.057Z,8.27
2023-05-07T15:10:14.287Z,10.27
2023-05-07T15:12:45.519Z,11.50
2023-05-07T15:15:18.497Z,10.90
2023-05-07T18:37:57.230Z,4.95
2023-05-07T20:56:42.447Z,18.05
2023-05-07T20:59:16.473Z,17.33
2023-05-07T21:01:47.103Z,18.23
2023-05-07T21:07:32.445Z,14.00
2023-05-07T21:13:36.384Z,16.27
2023-05-07T21:16:11.597Z,12.33
2023-05-07T21:18:40.415Z,14.40
2023-05-07T21:21:15.943Z,13.48
2023-05-07T21:23:48.031Z,18.10
2023-05-07T21:26:22.735Z,16.15
2023-05-07T21:28:54.349Z,23.02
2023-05-07T21:31:23.885Z,25.92
2023-05-07T21:33:56.545Z,29.35
2023-05-07T21:36:26.412Z,25.98
2023-05-07T21:39:11.807Z,24.95
2023-05-07T21:41:40.614Z,29.58
2023-05-07T21:44:11.673Z,30.33
2023-05-07T21:46:40.353Z,31.08
2023-05-07T21:49:10.673Z,23.13
2023-05-07T21:51:39.101Z,20.10
2023-05-07T21:54:13.341Z,19.85
2023-05-07T21:56:42.063Z,19.08
2023-05-07T21:59:12.565Z,19.80
2023-05-07T22:01:41.605Z,19.48
2023-05-07T22:04:11.773Z,19.77
2023-05-07T22:06:40.612Z,21.80
2023-05-07T22:09:11.559Z,19.60
2023-05-07T22:11:43.347Z,20.40
2023-05-07T22:14:15.393Z,19.67
2023-05-07T22:16:47.067Z,18.58
2023-05-07T22:19:16.368Z,24.05
2023-05-07T22:21:46.763Z,20.23
2023-05-07T22:24:15.959Z,24.80
2023-05-07T22:26:47.309Z,27.95
2023-05-07T22:29:17.631Z,19.05
2023-05-07T22:31:46.307Z,19.70
2023-05-07T22:34:19.203Z,29.95
2023-05-07T22:36:49.787Z,18.85
2023-05-07T22:39:19.500Z,20.00
2023-05-07T22:41:48.174Z,20.13
2023-05-07T22:44:18.444Z,29.48
2023-05-07T22:46:47.045Z,31.13
2023-05-07T22:49:15.790Z,20.10
2023-05-07T22:51:46.224Z,26.67
2023-05-07T22:54:17.286Z,27.42
2023-05-07T22:56:48.288Z,23.08
2023-05-07T22:59:19.131Z,22.25
2023-05-07T23:01:48.784Z,33.90
2023-05-07T23:04:17.405Z,27.38
2023-05-07T23:06:46.994Z,22.65
2023-05-07T23:09:16.067Z,21.98
2023-05-07T23:11:44.846Z,24.10
2023-05-07T23:14:13.801Z,23.67
2023-05-07T23:16:44.788Z,24.48
2023-05-07T23:19:13.528Z,27.10
2023-05-07T23:21:42.409Z,34.63
2023-05-07T23:24:12.033Z,39.22
2023-05-07T23:26:41.112Z,28.02
2023-05-07T23:29:15.174Z,25.58
2023-05-07T23:31:48.739Z,26.42
2023-05-07T23:34:25.197Z,26.08
2023-05-07T23:36:59.462Z,26.05
2023-05-07T23:39:32.893Z,29.02
2023-05-07T23:42:04.131Z,26.88
2023-05-07T23:44:37.624Z,27.50
2023-05-07T23:47:17.187Z,27.50
2023-05-07T23:49:48.014Z,26.08
2023-05-07T23:52:16.709Z,26.67
2023-05-07T23:54:45.420Z,29.02
2023-05-07T23:57:14.569Z,27.67
2023-05-07T23:59:43.224Z,27.88
